Terminal Aerodrome Forecast
Issued by NWS Detroit/Pontiac, MI

Home | Current Version | Previous Version | Text Only | Print | Product List | Glossary On
Versions: 1 2 3 4 5 6 7 8 9 10 11 12 13 14 15 16 17 18 19 20
174
FTUS43 KDTX 052320
TAFFNT
TAF
KFNT 052320Z 0600/0624 26008KT P6SM BKN035 OVC045
      TEMPO 0600/0601 3SM -SHSN BKN015 OVC025
     FM060200 28006KT P6SM BKN035 OVC070
     FM060700 26005KT P6SM BKN090
     FM061400 23007KT P6SM OVC050=

USA.gov is the U.S. government's official web portal to all federal, state and local government web resources and services.